Time;durP1;ratioP1;P1;durP2;ratioP2;P2;SDS_P1;SDS_P2;PMS_P1;PMS_P2;Temp;Humidity;BMP_temperature;BMP_pressure;BME280_temperature;BME280_humidity;BME280_pressure;Samples;Min_cycle;Max_cycle;Signal;HPM_P1;HPM_P2
2022/03/04 00:01:27;;;;;;;18.40;11.02;;;;;;;6.77;45.58;101856.78;5113038;28;20490;-66
2022/03/04 00:03:52;;;;;;;18.58;10.98;;;;;;;6.76;45.60;101852.34;5113378;28;20020;-65
2022/03/04 00:06:17;;;;;;;15.55;10.13;;;;;;;6.76;45.41;101849.72;5113291;28;20361;-65
2022/03/04 00:08:43;;;;;;;17.60;10.43;;;;;;;6.73;45.77;101863.63;5113273;28;20412;-65
2022/03/04 00:11:09;;;;;;;17.80;10.98;;;;;;;6.74;46.01;101864.53;5113054;28;20015;-66
2022/03/04 00:13:34;;;;;;;21.80;11.27;;;;;;;6.72;45.98;101866.19;5111844;28;20023;-66
2022/03/04 00:15:59;;;;;;;17.08;10.93;;;;;;;6.67;45.78;101860.72;5112967;28;20027;-65
2022/03/04 00:18:26;;;;;;;18.05;10.52;;;;;;;6.60;45.77;101869.19;5113380;28;21225;-66
2022/03/04 00:20:51;;;;;;;19.65;10.55;;;;;;;6.58;45.90;101862.97;5113188;28;20020;-66
2022/03/04 00:23:19;;;;;;;18.70;11.27;;;;;;;6.59;46.07;101875.25;5113078;28;20043;-66
2022/03/04 00:25:45;;;;;;;18.73;10.77;;;;;;;6.58;45.78;101875.19;5112794;28;20043;-65
2022/03/04 00:28:11;;;;;;;19.27;12.23;;;;;;;6.57;45.89;101881.28;5113243;28;20027;-65
2022/03/04 00:30:36;;;;;;;22.35;11.13;;;;;;;6.53;46.21;101878.53;5112965;28;20024;-66
2022/03/04 00:33:02;;;;;;;18.15;11.15;;;;;;;6.53;46.37;101875.91;5112936;28;20023;-65
2022/03/04 00:35:27;;;;;;;19.77;10.80;;;;;;;6.49;46.20;101870.44;5112995;28;20050;-66
2022/03/04 00:37:53;;;;;;;17.13;10.88;;;;;;;6.42;46.14;101874.50;5112952;28;20408;-65
2022/03/04 00:40:18;;;;;;;17.35;11.05;;;;;;;6.43;46.41;101880.69;5111752;28;20031;-65
2022/03/04 00:42:44;;;;;;;19.45;11.43;;;;;;;6.35;46.40;101874.22;5111141;28;20092;-66
2022/03/04 00:45:10;;;;;;;18.77;11.93;;;;;;;6.28;46.54;101878.28;5112058;28;20434;-65
2022/03/04 00:47:36;;;;;;;23.83;11.82;;;;;;;6.15;47.24;101876.81;5111192;27;20024;-65
2022/03/04 00:50:02;;;;;;;18.45;11.52;;;;;;;6.16;47.20;101875.09;5115344;28;20377;-66
2022/03/04 00:52:28;;;;;;;25.52;13.55;;;;;;;6.13;46.83;101886.38;5115954;28;20023;-66
2022/03/04 00:54:54;;;;;;;19.88;11.88;;;;;;;6.10;47.35;101872.19;5115868;28;20038;-65
2022/03/04 00:57:24;;;;;;;20.48;11.93;;;;;;;6.04;47.43;101875.47;5114867;28;20100;-66
2022/03/04 00:59:50;;;;;;;21.42;11.90;;;;;;;6.02;47.54;101874.47;5115920;28;20480;-65
2022/03/04 01:02:15;;;;;;;18.88;11.70;;;;;;;6.05;47.31;101881.59;5116149;28;20065;-65
2022/03/04 01:04:41;;;;;;;23.88;12.13;;;;;;;6.04;47.43;101872.84;5116149;28;20028;-65
2022/03/04 01:07:06;;;;;;;24.02;11.82;;;;;;;6.09;47.02;101876.56;5116015;28;20027;-65
2022/03/04 01:09:32;;;;;;;19.50;12.05;;;;;;;6.12;47.41;101887.16;5116095;28;20027;-65
2022/03/04 01:11:59;;;;;;;21.02;11.63;;;;;;;6.10;47.25;101886.22;5116187;28;20456;-66
2022/03/04 01:14:25;;;;;;;21.27;12.02;;;;;;;6.11;46.98;101888.00;5116063;28;20028;-66
2022/03/04 01:16:50;;;;;;;23.00;12.13;;;;;;;6.11;47.29;101889.72;5116184;28;20028;-66
2022/03/04 01:19:15;;;;;;;23.23;12.35;;;;;;;6.06;47.25;101880.75;5115912;28;20428;-66
2022/03/04 01:21:41;;;;;;;21.95;12.73;;;;;;;5.97;47.37;101883.88;5115858;28;20467;-65
2022/03/04 01:24:07;;;;;;;19.45;11.82;;;;;;;5.91;48.05;101883.53;5115796;28;20069;-66
2022/03/04 01:26:33;;;;;;;29.15;16.67;;;;;;;5.73;48.75;101889.72;5115440;28;20089;-65
2022/03/04 01:28:58;;;;;;;23.67;14.50;;;;;;;5.56;48.75;101882.78;5115908;28;20023;-66
2022/03/04 01:31:23;;;;;;;22.23;12.38;;;;;;;5.50;49.27;101875.53;5115646;28;20437;-66
2022/03/04 01:33:49;;;;;;;23.15;12.38;;;;;;;5.41;49.04;101880.34;5115510;28;20023;-65
2022/03/04 01:36:14;;;;;;;21.17;12.77;;;;;;;5.30;50.11;101878.91;5115835;28;20031;-66
2022/03/04 01:38:40;;;;;;;22.95;13.85;;;;;;;5.19;50.09;101873.16;5115799;28;20469;-66
2022/03/04 01:41:05;;;;;;;24.38;13.55;;;;;;;5.15;50.45;101876.44;5115390;28;20051;-65
2022/03/04 01:43:31;;;;;;;23.67;13.23;;;;;;;5.10;50.45;101874.44;5115608;28;20020;-66
2022/03/04 01:46:08;;;;;;;21.30;12.57;;;;;;;5.09;49.96;101870.88;5115353;28;20068;-66
2022/03/04 01:48:33;;;;;;;20.25;12.23;;;;;;;5.10;49.98;101870.09;5115402;28;20051;-65
2022/03/04 01:50:58;;;;;;;21.42;12.77;;;;;;;5.12;50.57;101871.03;5115414;28;20058;-65
2022/03/04 01:53:24;;;;;;;22.05;12.18;;;;;;;5.08;50.28;101871.72;5115336;28;20020;-65
2022/03/04 01:55:49;;;;;;;23.23;12.70;;;;;;;5.08;50.13;101876.97;5115064;28;20465;-65
2022/03/04 01:58:15;;;;;;;24.35;12.70;;;;;;;5.02;51.38;101874.06;5115185;28;20015;-65
2022/03/04 02:00:40;;;;;;;21.88;12.65;;;;;;;4.88;51.12;101883.84;5115028;28;20464;-65
2022/03/04 02:03:10;;;;;;;23.02;12.73;;;;;;;4.87;51.64;101888.97;5114998;28;20019;-65
2022/03/04 02:05:35;;;;;;;23.23;14.25;;;;;;;4.76;51.28;101884.13;5115100;28;20028;-66
2022/03/04 02:08:01;;;;;;;24.83;15.45;;;;;;;4.68;51.35;101877.59;5115082;28;20071;-66
2022/03/04 02:10:26;;;;;;;24.33;15.32;;;;;;;4.62;52.51;101881.59;5114850;28;20028;-66
2022/03/04 02:12:53;;;;;;;21.67;14.07;;;;;;;4.48;52.92;101887.00;5114882;28;20027;-65
2022/03/04 02:15:18;;;;;;;24.92;15.15;;;;;;;4.42;52.02;101888.44;5114784;28;20026;-65
2022/03/04 02:17:44;;;;;;;20.38;12.23;;;;;;;4.42;51.88;101884.09;5114909;28;20031;-65
2022/03/04 02:20:10;;;;;;;22.88;12.18;;;;;;;4.39;52.51;101878.69;5114613;28;20532;-66
2022/03/04 02:22:35;;;;;;;20.75;11.93;;;;;;;4.35;52.19;101876.72;5114575;28;20055;-65
2022/03/04 02:25:01;;;;;;;22.90;14.13;;;;;;;4.31;52.82;101876.50;5114746;28;20110;-65
2022/03/04 02:27:26;;;;;;;22.63;12.48;;;;;;;4.33;52.80;101883.63;5115311;28;20051;-66
2022/03/04 02:29:52;;;;;;;21.88;12.05;;;;;;;4.40;52.49;101870.00;5115261;28;20032;-66
2022/03/04 02:32:18;;;;;;;23.13;12.10;;;;;;;4.39;51.89;101870.84;5115130;28;20035;-65
2022/03/04 02:34:43;;;;;;;21.30;12.60;;;;;;;4.49;52.93;101875.72;5114450;28;20536;-65
2022/03/04 02:37:09;;;;;;;20.05;11.93;;;;;;;4.58;51.71;101874.41;5114543;28;20101;-65
2022/03/04 02:39:34;;;;;;;19.73;11.73;;;;;;;4.60;52.32;101862.31;5113877;28;20024;-65
2022/03/04 02:42:00;;;;;;;20.38;11.50;;;;;;;4.53;52.42;101864.59;5114015;28;20390;-65
2022/03/04 02:44:25;;;;;;;21.92;12.00;;;;;;;4.48;51.90;101857.34;5114440;28;20023;-65
2022/03/04 02:46:51;;;;;;;22.13;12.50;;;;;;;4.41;52.05;101861.38;5114458;28;20106;-66
2022/03/04 02:49:16;;;;;;;23.83;12.50;;;;;;;4.39;52.73;101864.72;5114054;28;20027;-65
2022/03/04 02:51:42;;;;;;;19.35;11.63;;;;;;;4.39;52.07;101856.88;5114215;28;20080;-65
2022/03/04 02:54:07;;;;;;;20.92;12.27;;;;;;;4.39;52.71;101856.88;5114097;28;20097;-65
2022/03/04 02:56:33;;;;;;;20.75;12.02;;;;;;;4.41;53.33;101861.38;5114234;28;20107;-65
2022/03/04 02:58:59;;;;;;;19.20;11.68;;;;;;;4.47;53.04;101860.78;5114056;28;20473;-65
2022/03/04 03:01:25;;;;;;;20.48;11.43;;;;;;;4.49;52.62;101848.66;5113946;28;20024;-65
2022/03/04 03:03:51;;;;;;;21.00;12.00;;;;;;;4.52;52.21;101861.91;5113995;28;20084;-65
2022/03/04 03:06:17;;;;;;;19.88;12.60;;;;;;;4.49;52.59;101859.13;5113645;28;20384;-65
2022/03/04 03:08:42;;;;;;;18.70;11.75;;;;;;;4.48;52.10;101865.19;5113799;28;20023;-65
2022/03/04 03:11:07;;;;;;;18.90;11.20;;;;;;;4.45;53.32;101857.16;5113424;28;20024;-65
2022/03/04 03:13:33;;;;;;;23.25;12.05;;;;;;;4.48;52.47;101858.22;5113799;28;20023;-65
2022/03/04 03:15:59;;;;;;;19.30;11.35;;;;;;;4.50;52.47;101866.19;5113978;28;20076;-66
2022/03/04 03:18:24;;;;;;;24.58;11.85;;;;;;;4.48;51.78;101859.94;5112705;28;20549;-65
2022/03/04 03:20:49;;;;;;;20.08;11.73;;;;;;;4.41;52.16;101856.13;5113365;28;20028;-66
2022/03/04 03:23:15;;;;;;;22.50;12.70;;;;;;;4.34;52.41;101856.63;5113224;28;20031;-66
2022/03/04 03:25:40;;;;;;;20.55;11.73;;;;;;;4.34;52.94;101859.25;5113315;28;20024;-65
2022/03/04 03:28:05;;;;;;;22.65;12.50;;;;;;;4.34;52.53;101851.38;5113868;28;20072;-66
2022/03/04 03:30:31;;;;;;;20.98;12.27;;;;;;;4.27;53.03;101864.97;5113565;28;20024;-65
2022/03/04 03:33:02;;;;;;;24.25;12.20;;;;;;;4.23;52.84;101874.34;5113558;28;20024;-66
2022/03/04 03:35:28;;;;;;;21.77;12.80;;;;;;;4.21;53.91;101870.78;5113388;28;20028;-65
2022/03/04 03:37:54;;;;;;;22.20;12.63;;;;;;;4.08;54.18;101873.56;5113471;28;20016;-65
2022/03/04 03:40:19;;;;;;;21.38;12.18;;;;;;;4.08;54.04;101870.06;5113728;28;20024;-66
2022/03/04 03:42:44;;;;;;;22.73;12.25;;;;;;;4.09;53.97;101866.63;5113352;28;20027;-65
2022/03/04 03:45:11;;;;;;;21.55;12.30;;;;;;;4.03;53.27;101861.97;5113448;28;20533;-65
2022/03/04 03:47:38;;;;;;;27.13;13.00;;;;;;;4.04;54.01;101866.38;5113480;28;20027;-65
2022/03/04 03:50:09;;;;;;;22.77;12.18;;;;;;;4.00;53.66;101877.47;5112983;28;20035;-65
2022/03/04 03:52:36;;;;;;;20.58;12.45;;;;;;;3.97;54.30;101872.97;5113325;28;20046;-65
2022/03/04 03:55:02;;;;;;;21.77;12.40;;;;;;;3.99;53.75;101868.75;5113426;28;20052;-65
2022/03/04 03:57:28;;;;;;;22.25;12.73;;;;;;;4.01;54.22;101874.94;5113201;28;20027;-65
2022/03/04 03:59:53;;;;;;;21.77;12.20;;;;;;;3.96;53.88;101867.69;5113292;28;20027;-66
2022/03/04 04:02:18;;;;;;;22.58;12.57;;;;;;;3.96;53.65;101875.53;5113280;28;20024;-66
2022/03/04 04:04:44;;;;;;;25.08;13.05;;;;;;;3.79;54.38;101876.31;5113274;28;20024;-66
2022/03/04 04:07:11;;;;;;;22.00;12.75;;;;;;;3.69;54.96;101870.59;5099569;28;20546;-68
2022/03/04 04:09:37;;;;;;;21.73;12.70;;;;;;;3.64;55.50;101881.59;5099393;28;20333;-67
2022/03/04 04:12:04;;;;;;;20.92;12.57;;;;;;;3.53;55.14;101877.50;5099344;28;20571;-67
2022/03/04 04:14:29;;;;;;;20.77;12.40;;;;;;;3.55;55.51;101883.69;5099809;28;20027;-67
2022/03/04 04:16:55;;;;;;;21.98;12.80;;;;;;;3.50;55.63;101888.66;5100704;28;20185;-67
2022/03/04 04:19:21;;;;;;;22.38;12.98;;;;;;;3.44;55.74;101897.06;5099706;28;20031;-67
2022/03/04 04:21:46;;;;;;;24.55;12.98;;;;;;;3.42;56.14;101884.72;5099794;28;20035;-67
2022/03/04 04:24:12;;;;;;;23.58;13.23;;;;;;;3.41;55.78;101891.66;5101742;28;20106;-67
2022/03/04 04:26:37;;;;;;;24.98;12.93;;;;;;;3.43;56.23;101892.66;5103372;28;20489;-67
2022/03/04 04:29:03;;;;;;;21.27;13.13;;;;;;;3.38;56.19;101894.09;5102370;28;20259;-68
2022/03/04 04:31:31;;;;;;;22.33;12.52;;;;;;;3.34;56.38;101891.22;5103384;28;20097;-68
2022/03/04 04:33:57;;;;;;;24.13;14.13;;;;;;;3.35;56.64;101893.06;5103259;28;20350;-68
2022/03/04 04:36:22;;;;;;;25.33;13.40;;;;;;;3.34;56.65;101896.44;5103240;28;20438;-67
2022/03/04 04:38:48;;;;;;;24.73;13.63;;;;;;;3.33;56.64;101892.03;5104800;28;20020;-67
2022/03/04 04:41:13;;;;;;;22.83;13.18;;;;;;;3.29;56.34;101903.13;5103334;28;20046;-66
2022/03/04 04:43:39;;;;;;;24.85;13.40;;;;;;;3.33;56.26;101903.38;5103691;28;20107;-68
2022/03/04 04:46:04;;;;;;;23.30;12.18;;;;;;;3.39;56.51;101906.38;5103118;28;20112;-67
2022/03/04 04:48:30;;;;;;;24.08;14.02;;;;;;;3.40;56.19;101900.31;5102518;28;20286;-66
2022/03/04 04:50:59;;;;;;;23.95;13.32;;;;;;;3.44;56.35;101909.25;5104168;28;20034;-67
2022/03/04 04:53:24;;;;;;;22.75;13.40;;;;;;;3.40;56.40;101909.88;5103468;28;20099;-68
2022/03/04 04:55:49;;;;;;;26.17;13.60;;;;;;;3.31;56.24;101906.75;5103049;28;20028;-67
2022/03/04 04:58:15;;;;;;;24.23;12.88;;;;;;;3.31;56.47;101906.75;5085673;28;20586;-67
2022/03/04 05:00:41;;;;;;;24.23;13.13;;;;;;;3.33;56.58;101907.72;5103279;28;20178;-66
2022/03/04 05:03:08;;;;;;;23.40;12.75;;;;;;;3.32;56.37;101900.69;5103201;28;20270;-67
2022/03/04 05:05:35;;;;;;;24.15;12.85;;;;;;;3.30;56.29;101887.56;5103069;28;20059;-67
2022/03/04 05:08:00;;;;;;;20.83;12.48;;;;;;;3.32;56.56;101903.31;5103006;28;20027;-68
2022/03/04 05:10:26;;;;;;;23.73;13.30;;;;;;;3.33;56.47;101892.03;5083524;28;20064;-67
2022/03/04 05:12:51;;;;;;;23.23;12.75;;;;;;;3.32;56.40;101900.69;5103054;28;20051;-68
2022/03/04 05:15:17;;;;;;;24.77;12.93;;;;;;;3.34;56.19;101900.00;5103477;28;20024;-66
2022/03/04 05:17:44;;;;;;;23.55;13.38;;;;;;;3.29;56.11;101897.91;5103644;28;20023;-67
2022/03/04 05:20:10;;;;;;;22.58;12.80;;;;;;;3.31;56.28;101902.41;5104597;28;20090;-66
2022/03/04 05:22:35;;;;;;;24.23;13.57;;;;;;;3.35;55.76;101907.00;5102175;28;20026;-66
2022/03/04 05:25:01;;;;;;;27.20;13.48;;;;;;;3.36;55.89;101907.91;5102630;28;20100;-67
2022/03/04 05:27:27;;;;;;;25.52;13.68;;;;;;;3.35;56.01;101903.50;5101197;28;20050;-65
2022/03/04 05:29:52;;;;;;;24.02;13.18;;;;;;;3.39;55.63;101905.47;5102108;28;20083;-67
2022/03/04 05:32:17;;;;;;;22.58;12.95;;;;;;;3.40;55.52;101902.03;5102374;28;20528;-67
2022/03/04 05:34:43;;;;;;;22.55;12.90;;;;;;;3.39;56.03;101902.88;5083070;28;20036;-66
2022/03/04 05:37:08;;;;;;;21.60;12.23;;;;;;;3.43;55.88;101918.78;5105418;28;20413;-66
2022/03/04 05:39:34;;;;;;;24.35;12.80;;;;;;;3.44;55.85;101909.25;5114031;28;20027;-65
2022/03/04 05:42:00;;;;;;;29.00;12.93;;;;;;;3.49;55.83;101916.50;5104653;28;20020;-66
2022/03/04 05:44:26;;;;;;;20.45;12.50;;;;;;;3.48;55.38;101919.94;5101678;28;20031;-67
2022/03/04 05:46:51;;;;;;;22.40;12.60;;;;;;;3.46;55.32;101918.94;5101740;28;20027;-67
2022/03/04 05:49:17;;;;;;;24.05;13.25;;;;;;;3.46;55.01;101920.66;5101639;28;20031;-66
2022/03/04 05:51:42;;;;;;;25.92;13.32;;;;;;;3.43;55.58;101915.28;5102493;28;20528;-66
2022/03/04 05:54:07;;;;;;;26.17;13.65;;;;;;;3.49;55.63;101933.91;5102538;28;20569;-66
2022/03/04 05:56:33;;;;;;;25.52;13.27;;;;;;;3.48;55.26;101939.97;5103470;28;20031;-67
2022/03/04 05:58:58;;;;;;;23.70;13.00;;;;;;;3.38;55.13;101935.00;5103695;28;20419;-66
2022/03/04 06:01:24;;;;;;;21.60;12.93;;;;;;;3.31;55.98;101939.00;5102296;28;20438;-67
2022/03/04 06:03:49;;;;;;;22.33;13.07;;;;;;;3.32;55.80;101951.22;5102592;28;20420;-67
2022/03/04 06:06:14;;;;;;;21.98;12.98;;;;;;;3.30;56.26;101946.72;5102520;28;20270;-67
2022/03/04 06:08:41;;;;;;;23.70;13.20;;;;;;;3.30;56.29;101944.09;5101573;28;20104;-68
2022/03/04 06:11:08;;;;;;;25.77;13.55;;;;;;;3.28;56.09;101951.88;5102384;28;20019;-66
2022/03/04 06:13:34;;;;;;;27.58;13.90;;;;;;;3.26;56.53;101949.19;5084451;28;20309;-66
2022/03/04 06:16:00;;;;;;;25.75;13.48;;;;;;;3.27;56.94;101947.47;5102668;28;20552;-67
2022/03/04 06:18:26;;;;;;;27.83;14.60;;;;;;;3.20;56.45;101950.50;5101685;28;20392;-68
2022/03/04 06:20:52;;;;;;;23.88;14.13;;;;;;;3.18;56.68;101944.31;5101418;28;20019;-68
2022/03/04 06:23:17;;;;;;;31.40;14.32;;;;;;;3.15;56.83;101945.03;5101671;28;20024;-67
2022/03/04 06:25:50;;;;;;;26.63;13.60;;;;;;;3.18;57.19;101945.22;5101615;28;20484;-68
2022/03/04 06:28:16;;;;;;;26.75;14.45;;;;;;;3.15;56.92;101944.13;5101185;28;20031;-67
2022/03/04 06:30:41;;;;;;;24.48;13.65;;;;;;;3.24;56.64;101948.16;5100752;28;20023;-68
2022/03/04 06:35:53;;;;;;;27.58;13.88;;;;;;;3.40;57.17;101946.44;5101340;28;20379;-68
2022/03/04 06:38:18;;;;;;;27.25;14.57;;;;;;;3.41;57.18;101953.47;5103375;28;20038;-66
2022/03/04 06:40:45;;;;;;;29.30;15.05;;;;;;;3.40;57.53;101949.06;5103135;28;20313;-66
2022/03/04 06:43:11;;;;;;;31.95;14.93;;;;;;;3.44;56.99;101962.38;5102950;28;20034;-67
2022/03/04 06:45:40;;;;;;;24.73;13.88;;;;;;;3.51;56.71;101966.25;5099520;28;20236;-66
2022/03/04 06:48:06;;;;;;;28.13;14.45;;;;;;;3.54;56.88;101958.59;5100881;28;20375;-66
2022/03/04 06:50:31;;;;;;;26.83;14.07;;;;;;;3.60;56.32;101963.25;5099390;28;20024;-67
2022/03/04 06:52:57;;;;;;;28.58;14.80;;;;;;;3.62;56.32;101966.88;5100273;28;20027;-68
2022/03/04 06:55:22;;;;;;;26.75;14.35;;;;;;;3.62;56.81;101970.38;5099911;28;20039;-68
2022/03/04 06:57:50;;;;;;;29.42;14.60;;;;;;;3.63;56.75;101968.66;5100360;28;20023;-68
2022/03/04 07:00:17;;;;;;;30.65;14.35;;;;;;;3.81;56.76;101976.63;5103096;28;20365;-69
2022/03/04 07:02:42;;;;;;;37.47;19.73;;;;;;;3.97;55.67;101982.81;5099552;28;20412;-67
2022/03/04 07:05:08;;;;;;;28.92;15.05;;;;;;;4.17;55.96;101976.06;5101756;28;20028;-67
2022/03/04 07:07:34;;;;;;;28.45;14.07;;;;;;;4.34;55.21;101982.22;5082713;28;20024;-67
2022/03/04 07:10:00;;;;;;;26.65;14.63;;;;;;;4.52;54.66;101980.59;5101223;28;20032;-66
2022/03/04 07:12:25;;;;;;;26.25;14.90;;;;;;;4.69;54.73;101980.59;5100669;28;20032;-67
2022/03/04 07:14:51;;;;;;;23.80;13.55;;;;;;;4.84;53.35;101990.94;5100693;28;20047;-66
2022/03/04 07:17:16;;;;;;;27.63;14.35;;;;;;;4.93;53.98;101987.09;5101169;28;20159;-67
2022/03/04 07:19:42;;;;;;;24.75;14.18;;;;;;;5.02;53.46;101997.16;5100138;28;20590;-68
2022/03/04 07:22:07;;;;;;;27.20;14.38;;;;;;;5.20;54.08;101994.56;5100729;28;20412;-66
2022/03/04 07:24:33;;;;;;;24.33;14.35;;;;;;;5.44;53.11;101997.56;5100077;28;20019;-67
2022/03/04 07:27:04;;;;;;;25.92;14.35;;;;;;;5.57;52.37;101999.94;5100705;28;20036;-67
2022/03/04 07:29:29;;;;;;;26.20;13.98;;;;;;;5.71;52.09;102000.63;5099875;28;20266;-67
2022/03/04 07:31:55;;;;;;;23.98;13.90;;;;;;;5.66;51.42;102000.41;5099877;28;20629;-67
2022/03/04 07:34:24;;;;;;;26.02;14.45;;;;;;;5.75;52.15;102006.09;5100769;28;20023;-66
2022/03/04 07:36:51;;;;;;;26.15;14.02;;;;;;;5.93;51.27;101998.25;5099484;28;20115;-67
2022/03/04 07:39:16;;;;;;;26.65;13.90;;;;;;;6.13;50.86;102006.19;5100545;28;20354;-67
2022/03/04 07:41:42;;;;;;;22.75;13.52;;;;;;;6.30;50.40;102007.88;5099699;28;20344;-67
2022/03/04 07:44:08;;;;;;;26.15;14.02;;;;;;;6.46;49.73;102006.84;5099872;28;20476;-67
2022/03/04 07:46:34;;;;;;;25.52;14.65;;;;;;;6.63;49.08;102002.34;5100515;28;20400;-66
2022/03/04 07:49:00;;;;;;;29.05;14.20;;;;;;;6.76;48.51;102002.97;5101358;28;20059;-66
2022/03/04 07:51:25;;;;;;;26.92;14.55;;;;;;;6.93;49.07;102003.72;5100844;28;20507;-65
2022/03/04 07:53:50;;;;;;;26.60;14.75;;;;;;;7.09;48.64;101996.50;5101438;28;20035;-66
2022/03/04 07:56:16;;;;;;;25.52;14.43;;;;;;;7.25;47.96;102005.13;5100466;28;20508;-65
2022/03/04 07:58:41;;;;;;;25.50;13.88;;;;;;;7.44;47.54;102005.91;5104293;28;20327;-67
2022/03/04 08:01:07;;;;;;;25.45;14.35;;;;;;;7.61;47.73;102009.22;5103234;28;20540;-66
2022/03/04 08:03:32;;;;;;;25.48;13.88;;;;;;;7.83;47.41;102005.75;5104547;28;20020;-67
2022/03/04 08:05:58;;;;;;;26.15;15.07;;;;;;;8.06;46.83;102010.22;5102977;28;20465;-68
2022/03/04 08:08:23;;;;;;;27.33;14.85;;;;;;;8.18;45.17;102008.06;5104243;28;20095;-67
2022/03/04 08:10:48;;;;;;;24.77;13.77;;;;;;;8.22;45.54;102004.72;5103407;28;20579;-67
2022/03/04 08:13:14;;;;;;;23.45;14.32;;;;;;;8.31;45.44;102006.81;5102541;28;20400;-67
2022/03/04 08:15:40;;;;;;;27.30;14.75;;;;;;;8.31;46.01;102011.16;5103441;28;20484;-67
2022/03/04 08:18:05;;;;;;;23.67;14.55;;;;;;;8.33;45.25;102009.47;5103121;28;20111;-66
2022/03/04 08:20:32;;;;;;;25.38;14.27;;;;;;;8.36;44.21;102022.78;5084647;28;20051;-68
2022/03/04 08:22:58;;;;;;;24.10;13.95;;;;;;;8.35;43.94;102013.06;5101943;28;20470;-65
2022/03/04 08:25:23;;;;;;;26.00;14.65;;;;;;;8.38;44.25;102013.22;5083720;28;20032;-67
2022/03/04 08:27:50;;;;;;;27.17;13.57;;;;;;;8.53;43.89;102013.81;5080374;28;20440;-66
2022/03/04 08:30:15;;;;;;;27.38;14.40;;;;;;;8.64;44.33;102014.19;5082854;28;20097;-67
2022/03/04 08:32:41;;;;;;;25.17;13.82;;;;;;;8.69;43.54;102016.19;5083235;28;20039;-66
2022/03/04 08:35:08;;;;;;;37.45;15.88;;;;;;;8.70;42.92;102020.63;5083654;28;20500;-66
2022/03/04 08:37:34;;;;;;;24.63;14.60;;;;;;;8.69;43.14;102031.06;5086412;28;20032;-66
2022/03/04 08:40:00;;;;;;;25.92;14.07;;;;;;;8.75;42.85;102024.31;5089176;28;20028;-66
2022/03/04 08:42:26;;;;;;;24.58;14.90;;;;;;;8.86;43.06;102035.22;5094087;28;20028;-65
2022/03/04 08:44:54;;;;;;;23.35;13.85;;;;;;;9.11;43.96;102030.84;5084169;28;20039;-65
2022/03/04 08:47:21;;;;;;;24.80;14.25;;;;;;;9.27;42.11;102041.09;5083147;28;20465;-66
2022/03/04 08:49:46;;;;;;;25.88;14.73;;;;;;;9.41;41.49;102038.94;5081962;28;20028;-67
2022/03/04 08:52:12;;;;;;;22.95;13.52;;;;;;;9.47;40.46;102040.06;5084191;28;20038;-67
2022/03/04 08:54:37;;;;;;;23.63;14.18;;;;;;;9.59;40.22;102041.31;5083493;28;20412;-67
2022/03/04 08:57:05;;;;;;;25.27;14.20;;;;;;;9.43;40.21;102042.56;5081971;28;20107;-68
2022/03/04 08:59:30;;;;;;;23.88;14.52;;;;;;;9.36;40.79;102041.44;5082982;28;20031;-67
2022/03/04 09:01:56;;;;;;;24.48;14.50;;;;;;;9.43;40.05;102040.81;5083101;28;20020;-67
2022/03/04 09:04:22;;;;;;;22.95;14.07;;;;;;;9.51;40.90;102039.34;5083109;28;20043;-67
2022/03/04 09:06:47;;;;;;;28.70;14.63;;;;;;;9.52;39.91;102042.88;5083343;28;20016;-67
2022/03/04 09:09:13;;;;;;;24.60;14.90;;;;;;;9.46;40.40;102045.28;5081949;28;20542;-68
2022/03/04 09:11:38;;;;;;;26.02;14.23;;;;;;;9.58;40.14;102044.81;5083571;28;20485;-67
2022/03/04 09:14:04;;;;;;;24.85;13.65;;;;;;;9.72;40.40;102046.16;5083103;28;20047;-68
2022/03/04 09:16:29;;;;;;;29.83;15.98;;;;;;;9.84;40.79;102032.47;5081762;28;20028;-68
2022/03/04 09:18:55;;;;;;;24.00;14.88;;;;;;;10.28;39.48;102037.47;5082275;28;20270;-67
2022/03/04 09:21:20;;;;;;;27.70;15.15;;;;;;;10.66;38.95;102031.53;5080690;28;20328;-68
2022/03/04 10:42:06;;;;;;;23.35;15.02;;;;;;;16.20;28.14;101988.38;6200681;22;20315;-64
2022/03/04 10:44:32;;;;;;;23.25;14.90;;;;;;;16.42;29.07;102006.28;6205447;23;20013;-65
2022/03/04 10:46:58;;;;;;;23.35;15.43;;;;;;;15.71;28.95;102020.00;6206462;23;20382;-65
2022/03/04 10:49:27;;;;;;;26.00;15.60;;;;;;;15.29;29.50;102018.72;6202872;23;20039;-68
2022/03/04 10:52:06;;;;;;;28.30;15.90;;;;;;;15.41;29.88;102028.59;6204669;23;20214;-67
2022/03/04 10:54:33;;;;;;;24.13;15.50;;;;;;;15.44;29.74;102023.28;6202694;23;20087;-68
2022/03/04 10:57:03;;;;;;;23.70;15.68;;;;;;;15.65;30.17;102015.53;6204898;23;20096;-66
2022/03/04 10:59:29;;;;;;;23.83;15.63;;;;;;;16.01;29.41;102009.56;6203696;23;20001;-68
2022/03/04 11:01:57;;;;;;;26.80;15.43;;;;;;;16.09;28.70;102006.09;6204500;23;20458;-67
2022/03/04 11:04:23;;;;;;;22.20;15.63;;;;;;;16.37;28.92;102008.03;6204784;23;20009;-66
2022/03/04 11:06:50;;;;;;;26.02;15.27;;;;;;;16.52;28.04;102002.78;6203676;23;20164;-66
2022/03/04 11:09:17;;;;;;;23.80;15.57;;;;;;;16.75;28.16;102010.94;6203391;23;20075;-67
2022/03/04 11:11:44;;;;;;;24.85;15.45;;;;;;;16.89;28.75;101996.75;6205326;23;20240;-67
2022/03/04 11:14:13;;;;;;;23.42;15.95;;;;;;;16.59;27.11;102001.03;6203898;23;20647;-67
2022/03/04 11:16:39;;;;;;;25.65;15.73;;;;;;;16.59;28.28;101997.47;6204017;23;20589;-68
2022/03/04 11:19:08;;;;;;;22.65;15.05;;;;;;;16.48;28.22;101994.75;6204761;23;20038;-67
2022/03/04 11:21:34;;;;;;;24.25;15.15;;;;;;;16.61;28.09;101985.91;6202968;23;20407;-66
2022/03/04 11:24:00;;;;;;;28.27;15.57;;;;;;;16.93;27.15;101995.84;6204264;23;20152;-67
2022/03/04 11:26:30;;;;;;;21.45;15.52;;;;;;;16.94;26.37;101987.84;6205827;23;20040;-67
2022/03/04 11:28:56;;;;;;;24.08;16.17;;;;;;;16.72;27.32;101988.63;6204632;23;20008;-69
2022/03/04 11:31:25;;;;;;;24.48;15.48;;;;;;;17.00;26.65;101986.97;6203416;23;20068;-67
2022/03/04 11:33:53;;;;;;;22.23;15.65;;;;;;;16.36;28.15;101982.25;6204301;23;20618;-66
2022/03/04 11:36:25;;;;;;;24.15;15.90;;;;;;;16.45;29.15;101984.97;6205096;23;20362;-67
2022/03/04 11:38:51;;;;;;;24.13;15.35;;;;;;;16.19;27.32;101983.94;6205217;23;20004;-66
2022/03/04 11:41:22;;;;;;;24.05;15.75;;;;;;;16.31;28.72;101983.09;6204594;23;20072;-65
2022/03/04 11:43:54;;;;;;;22.55;15.18;;;;;;;16.56;27.93;101973.44;6204900;23;20001;-67
2022/03/04 11:46:25;;;;;;;23.13;15.18;;;;;;;16.51;28.03;101982.31;6203118;23;20070;-68
2022/03/04 11:49:22;;;;;;;24.15;15.05;;;;;;;16.95;27.95;101978.06;6199947;23;20438;-66
2022/03/04 11:52:15;;;;;;;21.48;15.52;;;;;;;17.59;26.74;101974.56;6200108;23;20322;-67
2022/03/04 11:54:49;;;;;;;23.08;14.90;;;;;;;17.57;25.46;101979.94;6197665;23;20004;-67
2022/03/04 11:57:45;;;;;;;21.55;15.07;;;;;;;17.47;26.92;101973.69;6197829;23;20028;-67
2022/03/04 12:00:10;;;;;;;20.58;14.18;;;;;;;16.87;24.90;101966.44;6198377;23;20007;-65
2022/03/04 12:02:46;;;;;;;25.30;15.93;;;;;;;16.89;26.77;101975.38;6200063;23;20103;-66
2022/03/04 12:05:14;;;;;;;22.85;15.57;;;;;;;17.06;26.22;101972.75;6199057;23;20218;-67
2022/03/04 12:07:43;;;;;;;24.42;15.48;;;;;;;17.48;25.90;101969.25;6199486;23;20398;-69
2022/03/04 12:10:30;;;;;;;21.65;14.45;;;;;;;17.82;25.83;101967.47;6197646;23;20682;-66
2022/03/04 12:13:01;;;;;;;22.42;15.50;;;;;;;17.40;25.14;101971.03;6200504;23;20032;-66
2022/03/04 12:15:29;;;;;;;24.90;15.48;;;;;;;17.30;26.17;101972.81;6199615;23;20521;-68
2022/03/04 12:18:02;;;;;;;23.35;15.90;;;;;;;17.67;24.66;101968.31;6198785;23;20009;-66
2022/03/04 12:20:39;;;;;;;20.77;15.10;;;;;;;18.04;24.98;101959.41;6198875;23;20035;-67
2022/03/04 12:23:44;;;;;;;21.92;14.90;;;;;;;18.40;25.15;101975.34;6198102;23;20000;-67
2022/03/04 12:26:20;;;;;;;21.13;14.60;;;;;;;18.07;24.72;101972.75;6197882;23;20066;-67
2022/03/04 12:28:52;;;;;;;23.40;14.90;;;;;;;18.34;24.54;101967.34;6196919;23;20075;-67
2022/03/04 12:31:24;;;;;;;19.27;13.63;;;;;;;18.31;23.83;101969.13;6198653;23;20376;-66
2022/03/04 12:33:56;;;;;;;22.60;13.48;;;;;;;18.55;23.23;101969.06;6197292;23;20008;-67
2022/03/04 12:36:23;;;;;;;;;;;;;;;18.77;25.05;101956.50;6198911;23;20008;-67